createdAt,value
2017-04-17T00:00:41.795Z,0.00
2017-04-17T00:01:36.843Z,0.00
2017-04-17T00:02:31.838Z,0.00
2017-04-17T00:03:32.913Z,0.00
2017-04-17T00:04:32.909Z,0.00
2017-04-17T00:05:32.917Z,0.00
2017-04-17T00:06:28.069Z,0.00
2017-04-17T00:07:21.965Z,0.00
2017-04-17T00:08:22.998Z,0.00
2017-04-17T00:09:23.032Z,0.00
2017-04-17T00:10:23.075Z,0.00
2017-04-17T00:11:18.110Z,0.00
2017-04-17T00:12:12.146Z,0.00
2017-04-17T00:13:12.398Z,0.00
2017-04-17T00:14:07.300Z,0.00
2017-04-17T00:15:02.216Z,0.00
2017-04-17T00:16:03.245Z,0.00
2017-04-17T00:17:03.670Z,0.00
2017-04-17T00:18:03.354Z,0.00
2017-04-17T00:19:03.320Z,0.00
2017-04-17T00:20:04.342Z,0.00
2017-04-17T00:21:05.677Z,0.00
2017-04-17T00:21:59.416Z,0.00
2017-04-17T00:22:59.396Z,0.00
2017-04-17T00:23:54.427Z,0.00
2017-04-17T00:24:49.488Z,0.00
2017-04-17T00:25:49.505Z,0.00
2017-04-17T00:26:44.688Z,0.00
2017-04-17T00:27:39.551Z,0.00
2017-04-17T00:28:39.587Z,0.00
2017-04-17T00:29:34.655Z,0.00
2017-04-17T00:30:23.622Z,0.00
2017-04-17T00:31:17.843Z,0.00
2017-04-17T00:32:11.717Z,0.00
2017-04-17T00:33:05.741Z,0.00
2017-04-17T00:33:59.770Z,0.00
2017-04-17T00:35:05.813Z,0.00
2017-04-17T00:36:05.839Z,0.00
2017-04-17T00:36:59.871Z,0.00
2017-04-17T00:37:59.977Z,0.00
2017-04-17T00:38:54.875Z,0.00
2017-04-17T00:39:49.954Z,0.00
2017-04-17T00:40:50.975Z,0.00
2017-04-17T00:41:51.950Z,0.00
2017-04-17T00:42:47.019Z,0.00
2017-04-17T00:43:41.087Z,0.00
2017-04-17T00:44:41.083Z,0.00
2017-04-17T00:45:36.122Z,0.00
2017-04-17T00:46:36.265Z,0.00
2017-04-17T00:47:30.150Z,0.00
2017-04-17T00:48:30.469Z,0.00
2017-04-17T00:49:25.244Z,0.00
2017-04-17T00:50:20.252Z,0.00
2017-04-17T00:51:20.289Z,0.00
2017-04-17T00:52:15.308Z,0.00
2017-04-17T00:53:10.302Z,0.00
2017-04-17T00:54:10.320Z,0.00
2017-04-17T00:55:05.413Z,0.00
2017-04-17T00:56:00.836Z,0.00
2017-04-17T00:57:01.415Z,0.00
2017-04-17T00:58:02.046Z,0.00
2017-04-17T00:59:01.517Z,0.00
2017-04-17T00:59:56.519Z,0.00
2017-04-17T01:00:50.544Z,0.00
2017-04-17T01:01:50.611Z,0.00
2017-04-17T01:02:45.565Z,0.00
2017-04-17T01:03:51.653Z,0.00
2017-04-17T01:04:46.678Z,0.00
2017-04-17T01:05:46.735Z,0.00
2017-04-17T01:06:46.746Z,0.00
2017-04-17T01:07:46.726Z,0.00
2017-04-17T01:08:41.777Z,0.00
2017-04-17T01:09:36.988Z,0.00
2017-04-17T01:10:37.780Z,0.00
2017-04-17T01:11:43.885Z,0.00
2017-04-17T01:12:37.915Z,0.00
2017-04-17T01:13:37.900Z,0.00
2017-04-17T01:14:37.930Z,0.00
2017-04-17T01:15:32.980Z,0.00
2017-04-17T01:16:27.042Z,0.00
2017-04-17T01:17:27.203Z,0.00
2017-04-17T01:18:22.066Z,0.00
2017-04-17T01:19:17.157Z,0.00
2017-04-17T01:20:18.117Z,0.00
2017-04-17T01:21:18.140Z,0.00
2017-04-17T01:22:18.186Z,0.00
2017-04-17T01:23:18.266Z,0.00
2017-04-17T01:24:19.245Z,0.00
2017-04-17T01:25:20.572Z,0.00
2017-04-17T01:26:14.328Z,0.00
2017-04-17T01:27:15.406Z,0.00
2017-04-17T01:28:16.376Z,0.00
2017-04-17T01:29:16.361Z,0.00
2017-04-17T01:30:16.395Z,0.00
2017-04-17T01:31:11.469Z,0.00
2017-04-17T01:32:05.671Z,0.00
2017-04-17T01:33:06.102Z,0.00
2017-04-17T01:34:00.520Z,0.00
2017-04-17T01:34:54.563Z,0.00
2017-04-17T01:35:48.554Z,0.00
2017-04-17T01:36:37.773Z,0.00
2017-04-17T01:37:37.621Z,0.00
2017-04-17T01:38:32.642Z,0.00
2017-04-17T01:39:32.739Z,0.00
2017-04-17T01:40:26.798Z,0.00
2017-04-17T01:41:26.766Z,0.00
2017-04-17T01:42:21.816Z,0.00
2017-04-17T01:43:17.027Z,0.00
2017-04-17T01:44:16.865Z,0.00
2017-04-17T01:45:11.899Z,0.00
2017-04-17T01:46:05.978Z,0.00
2017-04-17T01:47:00.940Z,0.00
2017-04-17T01:47:54.970Z,0.00
2017-04-17T01:48:55.433Z,0.00
2017-04-17T01:49:55.049Z,0.00
2017-04-17T01:50:50.038Z,0.00
2017-04-17T01:51:44.138Z,0.00
2017-04-17T01:52:38.150Z,0.00
2017-04-17T01:53:27.746Z,0.00
2017-04-17T01:54:21.241Z,0.00
2017-04-17T01:55:10.254Z,0.00
2017-04-17T01:56:04.429Z,0.00
2017-04-17T01:57:04.321Z,0.00
2017-04-17T01:57:58.663Z,0.00
2017-04-17T01:58:58.358Z,0.00
2017-04-17T01:59:53.380Z,0.00
2017-04-17T02:00:54.428Z,0.00
2017-04-17T02:01:54.404Z,0.00
2017-04-17T02:02:55.472Z,0.00
2017-04-17T02:03:55.461Z,0.00
2017-04-17T02:04:43.924Z,0.00
2017-04-17T02:05:43.568Z,0.00
2017-04-17T02:06:43.533Z,0.00
2017-04-17T02:07:32.629Z,0.00
2017-04-17T02:08:32.639Z,0.00
2017-04-17T02:09:26.678Z,0.00
2017-04-17T02:10:14.665Z,0.00
2017-04-17T02:11:15.786Z,0.00
2017-04-17T02:12:09.753Z,0.00
2017-04-17T02:13:03.805Z,0.00
2017-04-17T02:13:52.096Z,0.00
2017-04-17T02:14:40.847Z,0.00
2017-04-17T02:15:35.928Z,0.00
2017-04-17T02:16:35.945Z,0.00
2017-04-17T02:17:29.969Z,0.00
2017-04-17T02:18:17.989Z,0.00
2017-04-17T02:19:07.011Z,0.00
2017-04-17T02:20:01.098Z,0.00
2017-04-17T02:20:56.110Z,0.00
2017-04-17T02:21:45.156Z,0.00
2017-04-17T02:22:39.363Z,0.00
2017-04-17T02:23:28.251Z,0.00
2017-04-17T02:24:17.250Z,0.00
2017-04-17T02:25:11.261Z,0.00
2017-04-17T02:26:11.307Z,0.00
2017-04-17T02:26:59.277Z,0.00
2017-04-17T02:28:00.364Z,0.00
2017-04-17T02:28:54.437Z,0.00
2017-04-17T02:29:54.535Z,0.00
2017-04-17T02:30:49.411Z,0.00
2017-04-17T02:31:44.502Z,0.00
2017-04-17T02:32:32.569Z,0.00
2017-04-17T02:33:32.511Z,0.00
2017-04-17T02:34:38.558Z,0.00
2017-04-17T02:35:33.627Z,0.00
2017-04-17T02:36:33.625Z,0.00
2017-04-17T02:37:28.657Z,0.00
2017-04-17T02:38:23.670Z,0.00
2017-04-17T02:39:24.705Z,0.00
2017-04-17T02:40:24.717Z,0.00
2017-04-17T02:41:24.756Z,0.00
2017-04-17T02:42:25.386Z,0.00
2017-04-17T02:43:25.828Z,0.00
2017-04-17T02:44:25.842Z,0.00
2017-04-17T02:45:20.846Z,0.00
2017-04-17T02:46:08.875Z,0.00
2017-04-17T02:46:57.970Z,0.00
2017-04-17T02:47:46.624Z,0.00
2017-04-17T02:48:40.404Z,0.00
2017-04-17T02:49:28.075Z,0.00
2017-04-17T02:50:23.037Z,0.00
2017-04-17T02:51:18.123Z,0.00
2017-04-17T02:52:13.142Z,0.00
2017-04-17T02:53:07.576Z,0.00
2017-04-17T02:54:02.324Z,0.00
2017-04-17T02:54:56.282Z,0.00
2017-04-17T02:55:56.236Z,0.00
2017-04-17T02:56:50.289Z,0.00
2017-04-17T02:57:50.311Z,0.00
2017-04-17T02:58:44.570Z,0.00
2017-04-17T02:59:38.386Z,0.00
2017-04-17T03:00:27.398Z,0.00
2017-04-17T03:01:22.471Z,0.00
2017-04-17T03:02:22.562Z,0.00
2017-04-17T03:03:17.618Z,0.00
2017-04-17T03:04:12.565Z,0.00
2017-04-17T03:05:12.573Z,0.00
2017-04-17T03:06:07.561Z,0.00
2017-04-17T03:07:07.631Z,0.00
2017-04-17T03:07:56.678Z,0.00
2017-04-17T03:08:56.695Z,0.00
2017-04-17T03:09:51.739Z,0.00
2017-04-17T03:10:46.731Z,0.00
2017-04-17T03:11:34.811Z,0.00
2017-04-17T03:12:29.801Z,0.00
2017-04-17T03:13:29.828Z,0.00
2017-04-17T03:14:30.188Z,0.00
2017-04-17T03:15:23.870Z,0.00
2017-04-17T03:16:23.854Z,0.00
2017-04-17T03:17:18.961Z,0.00
2017-04-17T03:18:19.027Z,0.00
2017-04-17T03:19:13.033Z,0.00
2017-04-17T03:20:14.234Z,0.00
2017-04-17T03:21:20.064Z,0.00
2017-04-17T03:22:14.135Z,0.00
2017-04-17T03:23:14.117Z,0.00
2017-04-17T03:24:14.150Z,0.00
2017-04-17T03:25:14.153Z,0.00
2017-04-17T03:26:20.233Z,0.00
2017-04-17T03:27:14.209Z,0.00
2017-04-17T03:28:03.634Z,0.00
2017-04-17T03:28:57.300Z,0.00
2017-04-17T03:29:57.352Z,0.00
2017-04-17T03:30:51.351Z,0.00
2017-04-17T03:31:51.420Z,0.00
2017-04-17T03:32:47.163Z,0.00
2017-04-17T03:33:34.431Z,0.00
2017-04-17T03:34:22.522Z,0.00
2017-04-17T03:35:16.520Z,0.00
2017-04-17T03:36:16.550Z,0.00
2017-04-17T03:37:11.835Z,0.00
2017-04-17T03:38:00.628Z,0.00
2017-04-17T03:38:54.602Z,0.00
2017-04-17T03:39:54.679Z,0.00
2017-04-17T03:40:54.704Z,0.00
2017-04-17T03:41:48.679Z,0.00
2017-04-17T03:42:48.900Z,0.00
2017-04-17T03:43:49.134Z,0.00
2017-04-17T03:44:42.816Z,0.00
2017-04-17T03:45:30.825Z,0.00
2017-04-17T03:46:18.873Z,0.00
2017-04-17T03:47:06.901Z,0.00
2017-04-17T03:48:02.012Z,0.00
2017-04-17T03:48:51.007Z,0.00
2017-04-17T03:49:39.039Z,0.00
2017-04-17T03:50:33.415Z,0.00
2017-04-17T03:51:21.106Z,0.00
2017-04-17T03:52:21.131Z,0.00
2017-04-17T03:53:10.999Z,0.00
2017-04-17T03:54:10.207Z,0.00
2017-04-17T03:55:04.649Z,0.00
2017-04-17T03:55:58.250Z,0.00
2017-04-17T03:56:53.281Z,0.00
2017-04-17T03:57:53.317Z,0.00
2017-04-17T03:58:47.334Z,0.00
2017-04-17T03:59:47.349Z,0.00
2017-04-17T04:00:41.829Z,0.00
2017-04-17T04:01:41.410Z,0.00
2017-04-17T04:02:35.436Z,0.00
2017-04-17T04:03:35.471Z,0.00
2017-04-17T04:04:23.577Z,0.00
2017-04-17T04:05:18.512Z,0.00
2017-04-17T04:06:07.571Z,0.00
2017-04-17T04:06:56.613Z,0.00
2017-04-17T04:07:51.651Z,0.00
2017-04-17T04:08:46.654Z,0.00
2017-04-17T04:09:41.709Z,0.00
2017-04-17T04:10:34.746Z,0.00
2017-04-17T04:11:22.721Z,0.00
2017-04-17T04:12:16.837Z,0.00
2017-04-17T04:13:04.924Z,0.00
2017-04-17T04:13:53.908Z,0.00
2017-04-17T04:14:54.257Z,0.00
2017-04-17T04:15:54.944Z,0.00
2017-04-17T04:16:55.960Z,0.00
2017-04-17T04:17:50.016Z,0.00
2017-04-17T04:18:50.061Z,0.00
2017-04-17T04:19:45.008Z,0.00
2017-04-17T04:20:45.328Z,0.00
2017-04-17T04:21:40.158Z,0.00
2017-04-17T04:22:34.362Z,0.00
2017-04-17T04:23:28.194Z,0.00
2017-04-17T04:24:28.218Z,0.00
2017-04-17T04:25:23.235Z,0.00
2017-04-17T04:26:12.930Z,0.00
2017-04-17T04:27:07.211Z,0.00
2017-04-17T04:28:01.369Z,0.00
2017-04-17T04:28:50.330Z,0.00
2017-04-17T04:29:39.380Z,0.00
2017-04-17T04:30:27.480Z,0.00
2017-04-17T04:31:16.800Z,0.00
2017-04-17T04:32:11.525Z,0.00
2017-04-17T04:33:05.543Z,0.00
2017-04-17T04:33:53.595Z,0.00
2017-04-17T04:34:47.604Z,0.00
2017-04-17T04:35:36.631Z,0.00
2017-04-17T04:36:26.066Z,0.00
2017-04-17T04:37:13.726Z,0.00
2017-04-17T04:38:08.727Z,0.00
2017-04-17T04:39:04.470Z,0.00
2017-04-17T04:39:57.834Z,0.01
2017-04-17T04:40:51.874Z,0.01
2017-04-17T04:41:41.532Z,0.01
2017-04-17T04:42:30.565Z,0.01
2017-04-17T04:43:23.949Z,0.01
2017-04-17T04:44:12.985Z,0.01
2017-04-17T04:45:07.002Z,0.01
2017-04-17T04:46:02.044Z,0.01
2017-04-17T04:47:03.070Z,0.01
2017-04-17T04:48:03.120Z,0.01
2017-04-17T04:48:52.140Z,0.01
2017-04-17T04:49:46.203Z,0.01
2017-04-17T04:50:34.229Z,0.01
2017-04-17T04:51:34.366Z,0.01
2017-04-17T04:52:23.526Z,0.01
2017-04-17T04:53:12.318Z,0.01
2017-04-17T04:54:07.318Z,0.01
2017-04-17T04:55:01.371Z,0.01
2017-04-17T04:55:55.412Z,0.01
2017-04-17T04:56:44.469Z,0.01
2017-04-17T04:57:39.046Z,0.02
2017-04-17T04:58:38.515Z,0.02
2017-04-17T04:59:26.793Z,0.02
2017-04-17T05:00:21.598Z,0.02
2017-04-17T05:01:10.676Z,0.02
2017-04-17T05:02:06.073Z,0.02
2017-04-17T05:03:00.001Z,0.03
2017-04-17T05:03:53.801Z,0.03
2017-04-17T05:04:47.756Z,0.03
2017-04-17T05:05:41.847Z,0.03
2017-04-17T05:06:35.832Z,0.03
2017-04-17T05:07:29.836Z,0.03
2017-04-17T05:08:25.250Z,0.03
2017-04-17T05:09:12.975Z,0.03
2017-04-17T05:10:01.945Z,0.03
2017-04-17T05:10:57.026Z,0.03
2017-04-17T05:11:51.414Z,0.03
2017-04-17T05:12:45.104Z,0.03
2017-04-17T05:13:39.527Z,0.03
2017-04-17T05:14:28.154Z,0.03
2017-04-17T05:15:23.144Z,0.03
2017-04-17T05:16:17.232Z,0.03
2017-04-17T05:17:12.266Z,0.03
2017-04-17T05:18:06.267Z,0.03
2017-04-17T05:19:00.632Z,0.03
2017-04-17T05:19:55.361Z,0.03
2017-04-17T05:20:55.529Z,0.03
2017-04-17T05:21:43.469Z,0.03
2017-04-17T05:22:31.461Z,0.03
2017-04-17T05:23:20.490Z,0.03
2017-04-17T05:24:08.859Z,0.03
2017-04-17T05:25:03.553Z,0.03
2017-04-17T05:26:03.611Z,0.03
2017-04-17T05:26:58.607Z,0.03
2017-04-17T05:27:58.617Z,0.03
2017-04-17T05:28:53.690Z,0.03
2017-04-17T05:29:43.219Z,0.03
2017-04-17T05:30:36.747Z,0.03
2017-04-17T05:31:31.757Z,0.04
2017-04-17T05:32:20.835Z,0.03
2017-04-17T05:33:09.844Z,0.03
2017-04-17T05:33:58.871Z,0.03
2017-04-17T05:34:53.271Z,0.03
2017-04-17T05:35:41.997Z,0.04
2017-04-17T05:36:42.324Z,0.05
2017-04-17T05:37:37.049Z,0.05
2017-04-17T05:38:31.088Z,0.06
2017-04-17T05:39:25.125Z,0.06
2017-04-17T05:40:20.480Z,0.06
2017-04-17T05:41:14.458Z,0.05
2017-04-17T05:42:08.495Z,0.05
2017-04-17T05:43:02.280Z,0.05
2017-04-17T05:44:02.280Z,0.05
2017-04-17T05:44:51.299Z,0.05
2017-04-17T05:45:40.807Z,0.05
2017-04-17T05:46:34.371Z,0.05
2017-04-17T05:47:28.420Z,0.04
2017-04-17T05:48:22.556Z,0.04
2017-04-17T05:49:11.810Z,0.03
2017-04-17T05:50:11.456Z,0.03
2017-04-17T05:51:00.854Z,0.03
2017-04-17T05:51:49.587Z,0.04
2017-04-17T05:52:44.567Z,0.05
2017-04-17T05:53:44.861Z,0.06
2017-04-17T05:54:38.658Z,0.07
2017-04-17T05:55:38.689Z,0.07
2017-04-17T05:56:33.084Z,0.07
2017-04-17T05:57:32.739Z,0.07
2017-04-17T05:58:21.819Z,0.07
2017-04-17T05:59:09.851Z,0.07
2017-04-17T05:59:58.875Z,0.07
2017-04-17T06:00:48.064Z,0.08
2017-04-17T06:01:48.735Z,0.08
2017-04-17T06:02:42.536Z,0.09
2017-04-17T06:03:31.035Z,0.08
2017-04-17T06:04:20.087Z,0.09
2017-04-17T06:05:26.083Z,0.11
2017-04-17T06:06:21.155Z,0.12
2017-04-17T06:07:10.459Z,0.13
2017-04-17T06:08:10.196Z,0.13
2017-04-17T06:08:59.217Z,0.13
2017-04-17T06:09:48.261Z,0.12
2017-04-17T06:10:37.562Z,0.11
2017-04-17T06:11:32.347Z,0.11
2017-04-17T06:12:26.636Z,0.11
2017-04-17T06:13:20.394Z,0.11
2017-04-17T06:14:14.426Z,0.11
2017-04-17T06:15:08.807Z,0.10
2017-04-17T06:16:08.494Z,0.11
2017-04-17T06:17:02.604Z,0.11
2017-04-17T06:17:50.593Z,0.11
2017-04-17T06:18:38.644Z,0.12
2017-04-17T06:19:27.681Z,0.12
2017-04-17T06:20:21.658Z,0.12
2017-04-17T06:21:09.752Z,0.12
2017-04-17T06:21:59.044Z,0.12
2017-04-17T06:22:53.807Z,0.13
2017-04-17T06:23:53.848Z,0.13
2017-04-17T06:24:54.862Z,0.13
2017-04-17T06:25:48.887Z,0.13
2017-04-17T06:26:42.938Z,0.13
2017-04-17T06:27:38.591Z,0.12
2017-04-17T06:28:33.065Z,0.12
2017-04-17T06:29:27.037Z,0.12
2017-04-17T06:30:16.053Z,0.13
2017-04-17T06:31:10.151Z,0.12
2017-04-17T06:32:10.141Z,0.12
2017-04-17T06:33:04.164Z,0.12
2017-04-17T06:33:59.236Z,0.12
2017-04-17T06:34:48.267Z,0.12
2017-04-17T06:35:36.323Z,0.13
2017-04-17T06:36:25.311Z,0.12
2017-04-17T06:37:14.328Z,0.13
2017-04-17T06:38:08.388Z,0.13
2017-04-17T06:38:57.478Z,0.13
2017-04-17T06:39:46.521Z,0.14
2017-04-17T06:40:34.564Z,0.14
2017-04-17T06:41:22.577Z,0.14
2017-04-17T06:42:17.097Z,0.15
2017-04-17T06:43:17.649Z,0.16
2017-04-17T06:44:12.651Z,0.15
2017-04-17T06:45:13.719Z,0.16
2017-04-17T06:46:07.716Z,0.16
2017-04-17T06:47:01.765Z,0.16
2017-04-17T06:47:56.131Z,0.16
2017-04-17T06:48:44.846Z,0.17
2017-04-17T06:49:38.858Z,0.18
2017-04-17T06:50:32.941Z,0.20
2017-04-17T06:51:26.901Z,0.22
2017-04-17T06:52:14.936Z,0.25
2017-04-17T06:53:03.057Z,0.27
2017-04-17T06:53:57.089Z,0.27
2017-04-17T06:54:51.144Z,0.24
2017-04-17T06:55:45.153Z,0.24
2017-04-17T06:56:34.214Z,0.26
2017-04-17T06:57:34.281Z,0.25
2017-04-17T06:58:28.242Z,0.24
2017-04-17T06:59:23.277Z,0.24
2017-04-17T07:00:24.406Z,0.20
2017-04-17T07:01:24.319Z,0.16
2017-04-17T07:02:18.447Z,0.14
2017-04-17T07:03:12.398Z,0.14
2017-04-17T07:04:07.455Z,0.14
2017-04-17T07:05:02.580Z,0.16
2017-04-17T07:05:51.576Z,0.17
2017-04-17T07:06:51.590Z,0.17
2017-04-17T07:07:41.161Z,0.14
2017-04-17T07:08:29.624Z,0.12
2017-04-17T07:09:24.154Z,0.11
2017-04-17T07:10:12.726Z,0.11
2017-04-17T07:11:01.805Z,0.11
2017-04-17T07:11:56.851Z,0.11
2017-04-17T07:12:51.019Z,0.12
2017-04-17T07:13:44.910Z,0.13
2017-04-17T07:14:39.956Z,0.12
2017-04-17T07:15:34.927Z,0.13
2017-04-17T07:16:29.010Z,0.15
2017-04-17T07:17:24.043Z,0.17
2017-04-17T07:18:13.089Z,0.16
2017-04-17T07:19:07.106Z,0.16
2017-04-17T07:19:56.124Z,0.17
2017-04-17T07:20:51.219Z,0.21
2017-04-17T07:21:46.228Z,0.21
2017-04-17T07:22:41.324Z,0.15
2017-04-17T07:23:41.327Z,0.16
2017-04-17T07:24:35.312Z,0.17
2017-04-17T07:25:23.395Z,0.20
2017-04-17T07:26:12.432Z,0.50
2017-04-17T07:27:01.507Z,0.23
2017-04-17T07:27:55.528Z,0.21
2017-04-17T07:28:55.563Z,0.18
2017-04-17T07:29:49.767Z,0.20
2017-04-17T07:30:50.626Z,0.21
2017-04-17T07:31:50.638Z,0.22
2017-04-17T07:32:45.701Z,0.27
2017-04-17T07:33:39.755Z,0.34
2017-04-17T07:34:34.748Z,0.33
2017-04-17T07:35:34.794Z,0.35
2017-04-17T07:36:29.819Z,0.34
2017-04-17T07:37:29.833Z,0.44
2017-04-17T07:38:24.884Z,0.44
2017-04-17T07:39:13.997Z,0.42
2017-04-17T07:40:03.008Z,0.34
2017-04-17T07:40:58.047Z,0.36
2017-04-17T07:41:59.063Z,0.21
2017-04-17T07:42:59.113Z,0.17
2017-04-17T07:43:54.157Z,0.14
2017-04-17T07:44:43.235Z,0.11
2017-04-17T07:45:43.279Z,0.10
2017-04-17T07:46:43.283Z,0.09
2017-04-17T07:47:37.353Z,0.07
2017-04-17T07:48:32.339Z,0.07
2017-04-17T07:49:27.439Z,0.06
2017-04-17T07:50:21.439Z,0.06
2017-04-17T07:51:21.475Z,0.07
2017-04-17T07:52:15.461Z,0.09
2017-04-17T07:53:16.539Z,0.12
2017-04-17T07:54:16.567Z,0.14
2017-04-17T07:55:05.666Z,0.15
2017-04-17T07:56:11.684Z,0.19
2017-04-17T07:57:07.205Z,0.22
2017-04-17T07:57:54.737Z,0.25
2017-04-17T07:58:54.769Z,0.27
2017-04-17T07:59:49.817Z,0.28
2017-04-17T08:00:49.844Z,0.29
2017-04-17T08:01:43.902Z,0.31
2017-04-17T08:02:38.471Z,0.29
2017-04-17T08:03:31.942Z,0.30
2017-04-17T08:04:19.927Z,0.30
2017-04-17T08:05:20.037Z,0.27
2017-04-17T08:06:09.079Z,0.24
2017-04-17T08:06:57.126Z,0.37
2017-04-17T08:07:58.133Z,0.18
2017-04-17T08:08:47.180Z,0.15
2017-04-17T08:09:41.248Z,0.13
2017-04-17T08:10:30.696Z,0.13
2017-04-17T08:11:30.345Z,0.15
2017-04-17T08:12:25.513Z,0.16
2017-04-17T08:13:18.405Z,0.18
2017-04-17T08:14:07.930Z,0.20
2017-04-17T08:15:01.951Z,0.22
2017-04-17T08:15:55.534Z,0.65
2017-04-17T08:16:44.526Z,0.67
2017-04-17T08:17:38.623Z,0.67
2017-04-17T08:18:39.610Z,0.72
2017-04-17T08:19:33.702Z,0.65
2017-04-17T08:20:27.702Z,0.76
2017-04-17T08:21:27.784Z,0.79
2017-04-17T08:22:21.850Z,0.80
2017-04-17T08:23:22.879Z,0.79
2017-04-17T08:24:22.902Z,0.74
2017-04-17T08:25:17.984Z,0.83
2017-04-17T08:26:12.006Z,0.83
2017-04-17T08:27:06.039Z,0.83
2017-04-17T08:28:00.051Z,0.79
2017-04-17T08:28:54.149Z,0.54
2017-04-17T08:29:43.440Z,0.33
2017-04-17T08:30:37.243Z,0.70
2017-04-17T08:31:32.243Z,0.24
2017-04-17T08:32:27.302Z,0.24
2017-04-17T08:33:21.353Z,0.20
2017-04-17T08:34:15.623Z,0.18
2017-04-17T08:35:16.467Z,0.16
2017-04-17T08:36:05.484Z,0.15
2017-04-17T08:37:00.567Z,0.14
2017-04-17T08:37:49.616Z,0.14
2017-04-17T08:38:44.056Z,0.14
2017-04-17T08:39:38.678Z,0.15
2017-04-17T08:40:38.734Z,0.15
2017-04-17T08:41:33.817Z,0.16
2017-04-17T08:42:21.825Z,0.18
2017-04-17T08:43:09.859Z,0.73
2017-04-17T08:44:03.912Z,0.76
2017-04-17T08:44:58.065Z,0.79
2017-04-17T08:45:45.975Z,0.81
2017-04-17T08:46:40.463Z,0.83
2017-04-17T08:47:35.129Z,0.84
2017-04-17T08:48:23.144Z,0.29
2017-04-17T08:49:17.214Z,0.34
2017-04-17T08:50:12.243Z,0.55
2017-04-17T08:51:06.298Z,0.32
2017-04-17T08:52:06.359Z,0.88
2017-04-17T08:53:01.354Z,0.87
2017-04-17T08:53:56.392Z,0.88
2017-04-17T08:54:45.423Z,0.87
2017-04-17T08:55:39.551Z,0.53
2017-04-17T08:56:40.571Z,0.36
2017-04-17T08:57:35.631Z,0.37
2017-04-17T08:58:29.621Z,0.30
2017-04-17T08:59:23.690Z,0.34
2017-04-17T09:00:23.751Z,0.35
2017-04-17T09:01:17.843Z,0.86
2017-04-17T09:02:12.098Z,0.44
2017-04-17T09:02:59.877Z,0.27
2017-04-17T09:03:53.939Z,0.27
2017-04-17T09:04:53.971Z,0.88
2017-04-17T09:05:43.030Z,0.35
2017-04-17T09:06:37.072Z,0.91
2017-04-17T09:07:31.146Z,0.82
2017-04-17T09:08:32.163Z,0.43
2017-04-17T09:09:27.225Z,0.26
2017-04-17T09:10:28.524Z,0.24
2017-04-17T09:11:22.329Z,0.23
2017-04-17T09:12:11.352Z,0.22
2017-04-17T09:13:06.428Z,0.23
2017-04-17T09:14:01.418Z,0.24
2017-04-17T09:14:55.630Z,0.36
2017-04-17T09:15:44.571Z,0.59
2017-04-17T09:16:38.622Z,0.87
2017-04-17T09:17:38.822Z,0.87
2017-04-17T09:18:32.703Z,0.85
2017-04-17T09:19:34.001Z,0.84
2017-04-17T09:20:28.801Z,0.87
2017-04-17T09:21:28.811Z,0.88
2017-04-17T09:22:23.889Z,0.89
2017-04-17T09:23:23.935Z,0.91
2017-04-17T09:24:18.984Z,0.92
2017-04-17T09:25:14.472Z,0.92
2017-04-17T09:26:03.069Z,0.54
2017-04-17T09:26:57.119Z,0.36
2017-04-17T09:27:52.137Z,0.46
2017-04-17T09:28:47.230Z,0.78
2017-04-17T09:29:41.260Z,0.55
2017-04-17T09:30:41.352Z,0.88
2017-04-17T09:31:35.328Z,0.92
2017-04-17T09:32:29.431Z,0.94
2017-04-17T09:33:18.450Z,0.93
2017-04-17T09:34:07.782Z,0.96
2017-04-17T09:34:56.564Z,0.98
2017-04-17T09:35:45.640Z,0.98
2017-04-17T09:36:34.049Z,0.35
2017-04-17T09:37:28.716Z,0.97
2017-04-17T09:38:22.772Z,0.79
2017-04-17T09:39:11.871Z,0.51
2017-04-17T09:40:05.879Z,0.26
2017-04-17T09:40:59.934Z,0.23
2017-04-17T09:41:54.928Z,0.21
2017-04-17T09:42:43.662Z,0.20
2017-04-17T09:43:38.116Z,0.19
2017-04-17T09:44:38.212Z,0.18
2017-04-17T09:45:32.199Z,0.18
2017-04-17T09:46:32.279Z,0.20
2017-04-17T09:47:21.320Z,0.22
2017-04-17T09:48:15.372Z,0.24
2017-04-17T09:49:10.415Z,0.25
2017-04-17T09:49:58.467Z,0.25
2017-04-17T09:50:52.554Z,0.26
2017-04-17T09:51:40.554Z,0.26
2017-04-17T09:52:34.586Z,0.28
2017-04-17T09:53:22.653Z,0.29
2017-04-17T09:54:16.743Z,0.28
2017-04-17T09:55:10.763Z,0.34
2017-04-17T09:56:04.817Z,0.27
2017-04-17T09:56:59.138Z,0.25
2017-04-17T09:57:52.905Z,0.22
2017-04-17T09:58:41.928Z,0.23
2017-04-17T09:59:30.930Z,0.24
2017-04-17T10:00:25.167Z,0.28
2017-04-17T10:01:19.040Z,0.29
2017-04-17T10:02:08.127Z,0.30
2017-04-17T10:03:02.172Z,0.32
2017-04-17T10:03:57.221Z,0.66
2017-04-17T10:04:46.242Z,0.31
2017-04-17T10:05:40.342Z,0.32
2017-04-17T10:06:29.358Z,0.40
2017-04-17T10:07:23.441Z,0.63
2017-04-17T10:08:11.458Z,0.31
2017-04-17T10:09:00.475Z,0.26
2017-04-17T10:09:54.509Z,0.24
2017-04-17T10:10:54.572Z,0.56
2017-04-17T10:11:48.855Z,0.89
2017-04-17T10:12:49.639Z,0.87
2017-04-17T10:13:43.745Z,0.86
2017-04-17T10:14:32.830Z,0.85
2017-04-17T10:15:27.833Z,0.84
2017-04-17T10:16:22.015Z,0.83
2017-04-17T10:17:16.903Z,0.83
2017-04-17T10:18:05.919Z,0.83
2017-04-17T10:19:01.015Z,0.83
2017-04-17T10:20:01.064Z,0.82
2017-04-17T10:20:56.063Z,0.82
2017-04-17T10:21:51.154Z,0.84
2017-04-17T10:22:39.144Z,0.86
2017-04-17T10:23:34.243Z,0.87
2017-04-17T10:24:28.232Z,0.88
2017-04-17T10:25:16.333Z,0.83
2017-04-17T10:26:11.891Z,0.90
2017-04-17T10:27:05.430Z,0.89
2017-04-17T10:27:59.445Z,0.60
2017-04-17T10:28:54.461Z,0.88
2017-04-17T10:29:48.544Z,0.87
2017-04-17T10:30:36.650Z,0.86
2017-04-17T10:31:25.634Z,0.87
2017-04-17T10:32:19.768Z,0.87
2017-04-17T10:33:07.718Z,0.87
2017-04-17T10:34:02.806Z,0.19
2017-04-17T10:34:50.859Z,0.87
2017-04-17T10:35:39.970Z,0.86
2017-04-17T10:36:29.000Z,0.66
2017-04-17T10:37:30.234Z,0.84
2017-04-17T10:38:24.097Z,0.84
2017-04-17T10:39:18.134Z,0.83
2017-04-17T10:40:12.167Z,0.83
2017-04-17T10:41:00.217Z,0.84
2017-04-17T10:41:54.231Z,0.84
2017-04-17T10:42:54.348Z,0.85
2017-04-17T10:43:48.357Z,0.86
2017-04-17T10:44:49.434Z,0.87
2017-04-17T10:45:38.433Z,0.87
2017-04-17T10:46:27.615Z,0.88
2017-04-17T10:47:16.501Z,0.89
2017-04-17T10:48:05.825Z,0.89
2017-04-17T10:49:05.676Z,0.91
2017-04-17T10:49:54.719Z,0.91
2017-04-17T10:50:49.807Z,0.91
2017-04-17T10:51:37.853Z,0.90
2017-04-17T10:52:26.893Z,0.90
2017-04-17T10:53:26.993Z,0.92
2017-04-17T10:54:16.004Z,0.90
2017-04-17T10:55:10.036Z,0.93
2017-04-17T10:56:05.126Z,0.94
2017-04-17T10:56:54.179Z,0.96
2017-04-17T10:57:48.238Z,0.98
2017-04-17T10:58:36.351Z,0.99
2017-04-17T10:59:31.336Z,0.98
2017-04-17T11:00:31.910Z,0.86
2017-04-17T11:01:25.412Z,0.41
2017-04-17T11:02:20.490Z,0.37
2017-04-17T11:03:15.559Z,0.75
2017-04-17T11:04:04.911Z,0.39
2017-04-17T11:04:58.665Z,0.45
2017-04-17T11:05:53.726Z,0.94
2017-04-17T11:06:41.785Z,0.41
2017-04-17T11:07:35.807Z,1.02
2017-04-17T11:08:31.044Z,0.97
2017-04-17T11:09:20.473Z,0.48
2017-04-17T11:10:13.999Z,0.28
2017-04-17T11:11:02.031Z,0.27
2017-04-17T11:11:56.240Z,0.28
2017-04-17T11:12:50.148Z,0.74
2017-04-17T11:13:39.216Z,0.93
2017-04-17T11:14:33.575Z,0.93
2017-04-17T11:15:28.300Z,0.94
2017-04-17T11:16:22.588Z,0.94
2017-04-17T11:17:22.804Z,0.94
2017-04-17T11:18:17.546Z,0.94
2017-04-17T11:19:11.573Z,0.94
2017-04-17T11:20:00.906Z,0.93
2017-04-17T11:20:54.865Z,0.92
2017-04-17T11:21:48.700Z,0.93
2017-04-17T11:22:36.822Z,0.91
2017-04-17T11:23:25.804Z,0.88
2017-04-17T11:24:14.857Z,0.91
2017-04-17T11:25:10.426Z,0.91
2017-04-17T11:25:58.019Z,0.71
2017-04-17T11:26:58.063Z,0.93
2017-04-17T11:27:46.707Z,0.92
2017-04-17T11:28:34.218Z,0.92
2017-04-17T11:29:28.255Z,0.90
2017-04-17T11:30:17.621Z,0.32
2017-04-17T11:31:05.357Z,0.27
2017-04-17T11:32:00.461Z,0.28
2017-04-17T11:32:54.443Z,0.92
2017-04-17T11:33:43.552Z,0.92
2017-04-17T11:34:37.584Z,0.97
2017-04-17T11:35:25.937Z,1.01
2017-04-17T11:36:13.719Z,1.02
2017-04-17T11:37:02.766Z,1.06
2017-04-17T11:37:57.205Z,1.09
2017-04-17T11:38:50.846Z,1.10
2017-04-17T11:39:50.936Z,1.10
2017-04-17T11:40:40.035Z,1.05
2017-04-17T11:41:34.024Z,0.84
2017-04-17T11:42:34.095Z,0.37
2017-04-17T11:43:28.156Z,0.37
2017-04-17T11:44:22.217Z,0.45
2017-04-17T11:45:17.244Z,0.50
2017-04-17T11:46:12.358Z,0.37
2017-04-17T11:47:06.483Z,0.31
2017-04-17T11:48:01.418Z,0.30
2017-04-17T11:48:55.491Z,0.28
2017-04-17T11:49:55.572Z,0.25
2017-04-17T11:50:44.599Z,0.23
2017-04-17T11:51:34.236Z,0.20
2017-04-17T11:52:21.692Z,0.17
2017-04-17T11:53:10.746Z,0.16
2017-04-17T11:53:58.848Z,0.14
2017-04-17T11:54:52.900Z,0.13
2017-04-17T11:55:46.939Z,0.14
2017-04-17T11:56:42.042Z,0.15
2017-04-17T11:57:37.056Z,0.16
2017-04-17T11:58:26.393Z,0.16
2017-04-17T11:59:20.168Z,0.17
2017-04-17T12:00:14.210Z,0.16
2017-04-17T12:01:09.234Z,0.16
2017-04-17T12:02:04.376Z,0.17
2017-04-17T12:02:53.376Z,0.19
2017-04-17T12:03:48.388Z,0.26
2017-04-17T12:04:42.473Z,0.28